createdAt,value
2022-09-12T00:00:38.706Z,99526.66
2022-09-12T00:03:42.265Z,99528.03
2022-09-12T00:06:45.212Z,99525.28
2022-09-12T00:09:48.219Z,99510.22
2022-09-12T00:12:50.736Z,99525.84
2022-09-12T00:15:53.567Z,99527.78
2022-09-12T00:18:57.135Z,99522.56
2022-09-12T00:22:00.059Z,99527.25
2022-09-12T00:25:02.803Z,99513.00
2022-09-12T00:28:05.688Z,99511.38
2022-09-12T00:31:12.779Z,99519.53
2022-09-12T00:34:15.723Z,99519.28
2022-09-12T00:37:18.257Z,99503.16
2022-09-12T00:40:21.109Z,99513.28
2022-09-12T00:43:38.506Z,99493.84
2022-09-12T00:46:48.789Z,99506.97
2022-09-12T00:50:14.181Z,99500.97
2022-09-12T00:53:17.842Z,99501.22
2022-09-12T00:56:23.470Z,99501.81
2022-09-12T00:59:32.392Z,99496.59
2022-09-12T01:02:35.238Z,99495.72
2022-09-12T01:05:44.462Z,99499.59
2022-09-12T01:08:48.207Z,99501.22
2022-09-12T01:11:53.144Z,99503.75
2022-09-12T01:14:55.806Z,99508.69
2022-09-12T01:18:10.737Z,99505.37
2022-09-12T01:21:37.750Z,99513.09
2022-09-12T01:25:28.760Z,99504.59
2022-09-12T01:29:03.709Z,99499.72
2022-09-12T01:32:26.828Z,99495.34
2022-09-12T01:35:58.669Z,99490.66
2022-09-12T01:39:03.852Z,99492.84
2022-09-12T01:42:32.274Z,99493.16
2022-09-12T01:45:47.807Z,99499.75
2022-09-12T01:49:09.313Z,99492.41
2022-09-12T01:52:49.537Z,99483.31
2022-09-12T01:55:59.836Z,99498.41
2022-09-12T01:59:09.198Z,99496.22
2022-09-12T02:02:21.797Z,99498.16
2022-09-12T02:05:34.840Z,99510.75
2022-09-12T02:08:47.297Z,99483.66
2022-09-12T02:11:53.585Z,99485.88
2022-09-12T02:15:03.468Z,99490.50
2022-09-12T02:18:07.015Z,99482.03
2022-09-12T02:21:10.192Z,99488.06
2022-09-12T02:24:16.542Z,99489.44
2022-09-12T02:27:24.826Z,99485.56
2022-09-12T02:30:37.452Z,99492.47
2022-09-12T02:34:02.079Z,99482.59
2022-09-12T02:37:39.869Z,99494.94
2022-09-12T02:40:43.210Z,99487.25
2022-09-12T02:43:47.519Z,99498.75
2022-09-12T02:46:57.559Z,99491.91
2022-09-12T02:50:00.661Z,99497.13
2022-09-12T02:53:05.635Z,99488.66
2022-09-12T02:56:14.365Z,99487.84
2022-09-12T02:59:19.906Z,99479.34
2022-09-12T03:02:44.023Z,99482.37
2022-09-12T03:05:59.838Z,99479.09
2022-09-12T03:09:15.681Z,99476.91
2022-09-12T03:12:39.042Z,99478.00
2022-09-12T03:16:05.225Z,99480.47
2022-09-12T03:19:24.525Z,99471.44
2022-09-12T03:22:51.146Z,99478.00
2022-09-12T03:26:01.431Z,99480.75
2022-09-12T03:29:07.077Z,99484.88
2022-09-12T03:32:09.640Z,99482.13
2022-09-12T03:35:14.725Z,99491.47
2022-09-12T03:38:18.165Z,99486.78
2022-09-12T03:41:21.645Z,99494.75
2022-09-12T03:44:24.746Z,99488.16
2022-09-12T03:47:27.643Z,99491.22
2022-09-12T03:50:31.065Z,99488.72
2022-09-12T03:53:34.268Z,99509.28
2022-09-12T03:56:37.164Z,99498.87
2022-09-12T03:59:40.049Z,99511.19
2022-09-12T04:02:42.659Z,99500.53
2022-09-12T04:05:46.611Z,99504.63
2022-09-12T04:08:51.548Z,99508.47
2022-09-12T04:11:54.374Z,99510.41
2022-09-12T04:14:56.887Z,99518.88
2022-09-12T04:18:05.081Z,99517.22
2022-09-12T04:21:14.362Z,99524.34
2022-09-12T04:24:17.349Z,99520.78
2022-09-12T04:27:19.948Z,99512.56
2022-09-12T04:30:22.938Z,99505.47
2022-09-12T04:33:26.545Z,99500.25
2022-09-12T04:36:29.716Z,99515.03
2022-09-12T04:39:32.638Z,99518.34
2022-09-12T04:42:35.477Z,99525.16
2022-09-12T04:45:38.051Z,99529.56
2022-09-12T04:48:41.627Z,99519.72
2022-09-12T04:51:44.439Z,99529.56
2022-09-12T04:54:47.301Z,99529.53
2022-09-12T04:57:49.854Z,99527.09
2022-09-12T05:00:52.772Z,99533.12
2022-09-12T05:03:56.491Z,99530.91
2022-09-12T05:06:59.983Z,99528.97
2022-09-12T05:10:04.748Z,99536.13
2022-09-12T05:13:07.614Z,99530.88
2022-09-12T05:16:12.332Z,99547.06
2022-09-12T05:19:15.330Z,99550.41
2022-09-12T05:22:17.917Z,99554.72
2022-09-12T05:25:20.802Z,99544.28
2022-09-12T05:28:24.722Z,99554.16
2022-09-12T05:31:28.974Z,99550.91
2022-09-12T05:34:31.582Z,99556.56
2022-09-12T05:37:34.562Z,99555.66
2022-09-12T05:40:37.221Z,99549.44
2022-09-12T05:43:42.519Z,99562.75
2022-09-12T05:46:48.668Z,99558.22
2022-09-12T05:49:52.524Z,99562.16
2022-09-12T05:52:55.165Z,99560.91
2022-09-12T05:56:13.192Z,99564.47
2022-09-12T05:59:17.433Z,99563.41
2022-09-12T06:02:20.665Z,99556.75
2022-09-12T06:05:23.968Z,99561.47
2022-09-12T06:08:26.791Z,99553.25
2022-09-12T06:11:36.180Z,99554.25
2022-09-12T06:14:38.943Z,99542.06
2022-09-12T06:17:42.021Z,99544.56
2022-09-12T06:20:44.753Z,99554.69
2022-09-12T06:23:48.282Z,99545.88
2022-09-12T06:26:52.903Z,99546.72
2022-09-12T06:29:55.853Z,99545.22
2022-09-12T06:32:58.492Z,99552.06
2022-09-12T06:36:11.514Z,99548.22
2022-09-12T06:39:21.134Z,99548.22
2022-09-12T06:42:24.009Z,99548.28
2022-09-12T06:45:31.559Z,99554.88
2022-09-12T06:48:38.339Z,99553.28
2022-09-12T06:51:44.586Z,99558.63
2022-09-12T06:54:47.831Z,99565.47
2022-09-12T06:57:50.648Z,99550.50
2022-09-12T07:01:01.990Z,99554.59
2022-09-12T07:04:05.531Z,99555.56
2022-09-12T07:07:08.411Z,99555.41
2022-09-12T07:10:12.456Z,99557.06
2022-09-12T07:13:15.353Z,99559.78
2022-09-12T07:16:19.854Z,99557.59
2022-09-12T07:19:24.306Z,99566.84
2022-09-12T07:22:26.910Z,99564.53
2022-09-12T07:25:29.856Z,99558.06
2022-09-12T07:28:34.326Z,99564.66
2022-09-12T07:31:37.330Z,99568.09
2022-09-12T07:34:39.973Z,99570.78
2022-09-12T07:37:43.038Z,99564.66
2022-09-12T07:40:45.860Z,99566.53
2022-09-12T07:43:52.196Z,99568.69
2022-09-12T07:46:54.956Z,99573.44
2022-09-12T07:49:59.128Z,99569.72
2022-09-12T07:53:03.212Z,99567.13
2022-09-12T07:56:08.190Z,99565.91
2022-09-12T07:59:10.840Z,99562.12
2022-09-12T08:02:17.742Z,99557.19
2022-09-12T08:05:20.956Z,99556.69
2022-09-12T08:08:23.817Z,99562.22
2022-09-12T08:11:29.362Z,99577.31
2022-09-12T08:14:32.054Z,99575.13
2022-09-12T08:17:35.013Z,99576.41
2022-09-12T08:20:37.641Z,99569.72
2022-09-12T08:23:40.938Z,99559.94
2022-09-12T08:26:43.616Z,99569.56
2022-09-12T08:29:46.550Z,99568.53
2022-09-12T08:32:49.370Z,99568.06
2022-09-12T08:35:52.368Z,99572.69
2022-09-12T08:38:59.977Z,99567.59
2022-09-12T08:42:06.045Z,99572.41
2022-09-12T08:45:11.903Z,99570.88
2022-09-12T08:48:15.036Z,99574.31
2022-09-12T08:51:20.593Z,99578.03
2022-09-12T08:54:27.477Z,99569.91
2022-09-12T08:57:30.184Z,99570.12
2022-09-12T09:00:45.324Z,99556.75
2022-09-12T09:04:01.989Z,99566.63
2022-09-12T09:07:23.490Z,99558.31
2022-09-12T09:10:53.554Z,99564.84
2022-09-12T09:14:32.028Z,99574.91
2022-09-12T09:17:45.815Z,99570.50
2022-09-12T09:20:57.630Z,99572.34
2022-09-12T09:24:07.862Z,99561.16
2022-09-12T09:27:39.901Z,99565.44
2022-09-12T09:30:45.115Z,99568.69
2022-09-12T09:33:51.123Z,99571.75
2022-09-12T09:37:09.053Z,99565.41
2022-09-12T09:40:20.449Z,99565.53
2022-09-12T09:43:27.545Z,99561.22
2022-09-12T09:46:30.635Z,99557.69
2022-09-12T09:49:35.092Z,99565.91
2022-09-12T09:52:39.663Z,99555.78
2022-09-12T09:55:43.969Z,99548.59
2022-09-12T09:58:46.985Z,99556.28
2022-09-12T10:01:54.652Z,99549.91
2022-09-12T10:04:59.795Z,99556.25
2022-09-12T10:08:10.457Z,99556.28
2022-09-12T10:11:16.516Z,99538.84
2022-09-12T10:14:39.683Z,99540.78
2022-09-12T10:17:44.527Z,99543.03
2022-09-12T10:20:47.096Z,99537.41
2022-09-12T10:24:00.073Z,99528.72
2022-09-12T10:27:11.870Z,99534.44
2022-09-12T10:30:17.939Z,99530.00
2022-09-12T10:33:20.993Z,99539.72
2022-09-12T10:36:24.822Z,99531.53
2022-09-12T10:39:27.851Z,99542.16
2022-09-12T10:42:53.444Z,99533.34
2022-09-12T10:46:19.783Z,99536.63
2022-09-12T10:49:29.890Z,99538.09
2022-09-12T10:52:32.494Z,99540.06
2022-09-12T10:55:35.990Z,99528.00
2022-09-12T10:59:19.892Z,99534.28
2022-09-12T11:02:26.109Z,99535.50
2022-09-12T11:05:40.827Z,99522.31
2022-09-12T11:08:53.524Z,99525.62
2022-09-12T11:12:24.984Z,99523.06
2022-09-12T11:15:39.848Z,99527.91
2022-09-12T11:19:04.226Z,99513.87
2022-09-12T11:22:45.006Z,99518.56
2022-09-12T11:26:21.172Z,99522.53
2022-09-12T11:29:41.286Z,99509.16
2022-09-12T11:32:53.671Z,99510.88
2022-09-12T11:35:58.003Z,99497.56
2022-09-12T11:39:10.689Z,99497.37
2022-09-12T11:42:20.247Z,99508.16
2022-09-12T11:45:29.386Z,99507.22
2022-09-12T11:48:45.140Z,99509.59
2022-09-12T11:52:01.991Z,99498.91
2022-09-12T11:55:17.866Z,99501.44
2022-09-12T11:58:24.925Z,99483.31
2022-09-12T12:01:42.917Z,99494.09
2022-09-12T12:05:20.767Z,99494.97
2022-09-12T12:08:26.680Z,99487.41
2022-09-12T12:11:34.263Z,99474.38
2022-09-12T12:14:46.362Z,99488.75
2022-09-12T12:18:04.606Z,99483.34
2022-09-12T12:21:32.198Z,99489.66
2022-09-12T12:24:53.216Z,99490.37
2022-09-12T12:28:01.449Z,99494.09
2022-09-12T12:31:05.747Z,99486.97
2022-09-12T12:34:41.246Z,99488.94
2022-09-12T12:37:49.179Z,99488.84
2022-09-12T12:40:51.977Z,99489.22
2022-09-12T12:43:56.524Z,99474.44
2022-09-12T12:47:16.979Z,99487.59
2022-09-12T12:50:19.939Z,99483.41
2022-09-12T12:53:26.134Z,99475.56
2022-09-12T12:56:38.795Z,99477.03
2022-09-12T12:59:51.856Z,99484.22
2022-09-12T13:03:01.217Z,99477.69
2022-09-12T13:06:09.038Z,99476.47
2022-09-12T13:09:30.969Z,99480.09
2022-09-12T13:12:44.395Z,99478.13
2022-09-12T13:15:51.331Z,99483.78
2022-09-12T13:18:54.453Z,99479.56
2022-09-12T13:22:01.065Z,99471.75
2022-09-12T13:25:19.322Z,99467.81
2022-09-12T13:28:24.627Z,99459.78
2022-09-12T13:31:31.126Z,99465.66
2022-09-12T13:34:37.245Z,99461.88
2022-09-12T13:37:58.569Z,99457.84
2022-09-12T13:41:30.991Z,99450.31
2022-09-12T13:44:45.751Z,99449.63
2022-09-12T13:47:58.759Z,99440.16
2022-09-12T13:51:03.986Z,99439.19
2022-09-12T13:54:07.359Z,99451.16
2022-09-12T13:57:38.169Z,99441.25
2022-09-12T14:00:41.181Z,99444.78
2022-09-12T14:04:08.592Z,99455.84
2022-09-12T14:07:17.349Z,99451.63
2022-09-12T14:10:42.622Z,99444.72
2022-09-12T14:13:46.143Z,99440.28
2022-09-12T14:16:50.258Z,99444.44
2022-09-12T14:19:53.019Z,99435.84
2022-09-12T14:22:56.079Z,99428.69
2022-09-12T14:26:02.602Z,99436.91
2022-09-12T14:29:07.392Z,99426.44
2022-09-12T14:32:21.411Z,99430.84
2022-09-12T14:35:24.329Z,99420.19
2022-09-12T14:38:36.155Z,99422.44
2022-09-12T14:41:41.381Z,99423.19
2022-09-12T14:45:02.783Z,99429.47
2022-09-12T14:48:05.858Z,99427.91
2022-09-12T14:51:18.511Z,99417.25
2022-09-12T14:54:27.471Z,99432.97
2022-09-12T14:57:39.522Z,99428.87
2022-09-12T15:01:22.978Z,99415.78
2022-09-12T15:04:42.466Z,99415.41
2022-09-12T15:07:56.359Z,99418.12
2022-09-12T15:11:00.008Z,99412.56
2022-09-12T15:14:15.744Z,99399.03
2022-09-12T15:17:18.379Z,99409.59
2022-09-12T15:20:21.414Z,99407.63
2022-09-12T15:23:46.941Z,99405.41
2022-09-12T15:26:51.001Z,99394.81
2022-09-12T15:29:53.905Z,99402.16
2022-09-12T15:32:56.906Z,99395.34
2022-09-12T15:35:59.516Z,99404.34
2022-09-12T15:39:02.460Z,99403.22
2022-09-12T15:42:05.121Z,99400.94
2022-09-12T15:45:29.257Z,99402.09
2022-09-12T15:48:31.875Z,99408.47
2022-09-12T15:51:34.851Z,99406.69
2022-09-12T15:54:37.482Z,99405.38
2022-09-12T15:57:40.493Z,99409.75
2022-09-12T16:00:43.108Z,99409.75
2022-09-12T16:03:47.673Z,99411.25
2022-09-12T16:06:51.580Z,99409.47
2022-09-12T16:09:54.469Z,99407.34
2022-09-12T16:12:58.191Z,99416.00
2022-09-12T16:16:01.366Z,99415.03
2022-09-12T16:19:04.283Z,99415.06
2022-09-12T16:22:07.195Z,99419.13
2022-09-12T16:25:10.458Z,99420.41
2022-09-12T16:28:13.517Z,99428.91
2022-09-12T16:31:16.246Z,99425.00
2022-09-12T16:34:19.225Z,99431.50
2022-09-12T16:37:21.826Z,99423.81
2022-09-12T16:40:25.001Z,99421.50
2022-09-12T16:43:27.670Z,99431.25
2022-09-12T16:46:30.580Z,99434.00
2022-09-12T16:49:33.610Z,99417.50
2022-09-12T16:52:36.637Z,99425.25
2022-09-12T16:55:39.401Z,99423.06
2022-09-12T16:58:42.745Z,99425.25
2022-09-12T17:01:45.530Z,99418.47
2022-09-12T17:04:48.945Z,99430.56
2022-09-12T17:07:52.062Z,99430.44
2022-09-12T17:11:06.641Z,99427.66
2022-09-12T17:14:10.705Z,99431.28
2022-09-12T17:17:13.770Z,99440.19
2022-09-12T17:20:16.832Z,99437.56
2022-09-12T17:23:19.735Z,99443.19
2022-09-12T17:26:22.493Z,99437.87
2022-09-12T17:29:25.521Z,99437.75
2022-09-12T17:32:28.225Z,99439.03
2022-09-12T17:35:35.079Z,99444.06
2022-09-12T17:38:39.783Z,99446.47
2022-09-12T17:41:43.124Z,99446.50
2022-09-12T17:44:45.830Z,99441.59
2022-09-12T17:47:49.154Z,99457.66
2022-09-12T17:50:52.114Z,99458.88
2022-09-12T17:54:10.427Z,99469.22
2022-09-12T17:57:13.085Z,99476.47
2022-09-12T18:00:16.339Z,99474.97
2022-09-12T18:03:22.955Z,99484.22
2022-09-12T18:06:25.707Z,99481.06
2022-09-12T18:09:29.213Z,99485.84
2022-09-12T18:12:32.445Z,99472.56
2022-09-12T18:15:35.662Z,99479.81
2022-09-12T18:18:38.944Z,99483.75
2022-09-12T18:21:41.937Z,99475.31
2022-09-12T18:24:44.545Z,99474.31
2022-09-12T18:27:47.570Z,99488.66
2022-09-12T18:30:50.152Z,99482.91
2022-09-12T18:33:53.079Z,99490.63
2022-09-12T18:36:55.759Z,99482.41
2022-09-12T18:39:58.663Z,99475.34
2022-09-12T18:43:01.220Z,99488.56
2022-09-12T18:46:10.548Z,99474.38
2022-09-12T18:49:13.235Z,99482.66
2022-09-12T18:52:18.947Z,99481.06
2022-09-12T18:55:23.634Z,99489.28
2022-09-12T18:58:26.612Z,99491.22
2022-09-12T19:01:37.420Z,99502.50
2022-09-12T19:04:40.520Z,99507.19
2022-09-12T19:07:43.098Z,99500.69
2022-09-12T19:10:53.858Z,99510.00
2022-09-12T19:13:56.750Z,99516.06
2022-09-12T19:16:59.742Z,99500.19
2022-09-12T19:20:02.789Z,99506.53
2022-09-12T19:23:05.926Z,99509.28
2022-09-12T19:26:11.744Z,99508.47
2022-09-12T19:29:16.641Z,99501.62
2022-09-12T19:32:19.367Z,99504.06
2022-09-12T19:35:22.245Z,99497.50
2022-09-12T19:38:25.055Z,99508.72
2022-09-12T19:41:28.141Z,99509.84
2022-09-12T19:44:30.700Z,99513.66
2022-09-12T19:47:33.713Z,99520.50
2022-09-12T19:50:37.165Z,99517.22
2022-09-12T19:53:40.963Z,99520.75
2022-09-12T19:56:43.522Z,99515.53
2022-09-12T19:59:46.477Z,99522.38
2022-09-12T20:02:51.310Z,99516.25
2022-09-12T20:05:54.145Z,99517.62
2022-09-12T20:08:56.870Z,99516.25
2022-09-12T20:11:59.790Z,99522.25
2022-09-12T20:15:02.531Z,99509.62
2022-09-12T20:18:05.527Z,99507.16
2022-09-12T20:21:16.446Z,99507.94
2022-09-12T20:24:19.753Z,99498.37
2022-09-12T20:27:22.270Z,99505.72
2022-09-12T20:30:25.274Z,99493.66
2022-09-12T20:33:27.992Z,99510.31
2022-09-12T20:36:31.029Z,99516.62
2022-09-12T20:39:33.999Z,99516.66
2022-09-12T20:42:37.149Z,99511.19
2022-09-12T20:45:42.479Z,99520.81
2022-09-12T20:48:46.927Z,99512.66
2022-09-12T20:51:50.110Z,99511.84
2022-09-12T20:54:53.079Z,99511.31
2022-09-12T20:57:55.710Z,99508.81
2022-09-12T21:00:59.394Z,99510.75
2022-09-12T21:04:02.210Z,99512.94
2022-09-12T21:07:05.172Z,99514.03
2022-09-12T21:10:08.080Z,99515.09
2022-09-12T21:13:12.192Z,99515.63
2022-09-12T21:16:17.553Z,99511.25
2022-09-12T21:19:20.538Z,99518.66
2022-09-12T21:22:23.158Z,99514.53
2022-09-12T21:25:25.995Z,99512.34
2022-09-12T21:28:29.290Z,99519.69
2022-09-12T21:31:32.211Z,99515.19
2022-09-12T21:34:34.817Z,99511.91
2022-09-12T21:37:37.678Z,99518.41
2022-09-12T21:40:40.283Z,99515.31
2022-09-12T21:43:44.014Z,99525.44
2022-09-12T21:46:46.584Z,99512.63
2022-09-12T21:49:49.456Z,99512.16
2022-09-12T21:52:52.122Z,99516.91
2022-09-12T21:55:55.026Z,99522.94
2022-09-12T21:58:57.602Z,99505.16
2022-09-12T22:02:00.467Z,99513.91
2022-09-12T22:05:04.275Z,99515.19
2022-09-12T22:08:08.045Z,99514.34
2022-09-12T22:11:10.897Z,99509.41
2022-09-12T22:14:13.524Z,99508.00
2022-09-12T22:17:16.325Z,99500.53
2022-09-12T22:20:19.529Z,99497.22
2022-09-12T22:23:40.781Z,99501.53
2022-09-12T22:26:45.144Z,99502.84
2022-09-12T22:29:50.906Z,99493.16
2022-09-12T22:32:53.538Z,99496.94
2022-09-12T22:35:56.381Z,99488.66
2022-09-12T22:39:00.331Z,99482.66
2022-09-12T22:42:03.896Z,99497.16
2022-09-12T22:45:07.670Z,99483.13
2022-09-12T22:48:10.539Z,99494.62
2022-09-12T22:51:13.833Z,99484.75
2022-09-12T22:54:16.685Z,99488.28
2022-09-12T22:57:19.486Z,99477.59
2022-09-12T23:00:23.615Z,99489.91
2022-09-12T23:03:26.221Z,99471.03
2022-09-12T23:06:29.516Z,99481.47
2022-09-12T23:09:35.264Z,99474.66
2022-09-12T23:12:38.439Z,99478.91
2022-09-12T23:15:41.182Z,99480.59
2022-09-12T23:18:44.880Z,99481.94
2022-09-12T23:21:47.457Z,99473.75
2022-09-12T23:24:50.345Z,99458.44
2022-09-12T23:27:53.530Z,99461.41
2022-09-12T23:30:57.173Z,99462.25
2022-09-12T23:34:02.537Z,99475.94
2022-09-12T23:37:05.363Z,99472.94
2022-09-12T23:40:09.049Z,99465.81
2022-09-12T23:43:11.930Z,99467.50
2022-09-12T23:46:16.698Z,99463.62
2022-09-12T23:49:19.880Z,99477.88
2022-09-12T23:52:22.482Z,99478.19
2022-09-12T23:55:25.379Z,99474.72
2022-09-12T23:58:29.607Z,99466.53
